Alamo, California
Current Conditions -  °F | °C
As of 2:53 PM on Thursday 23 Oct 2014 (Local Time) from KCCR Reporting Station
Clear Clear  
Wind Chill: 74°   Ceiling: Unl
Heat Index: 74°   Visibility: 10mi
Dew Point: 55°   Wind: 10mph
Humidity: 52%   Direction: 320°NW
Pressure: 30.01"   Gusts: NA
Location:  37.85°N, 122.03°W
Report Text: KCCR 232153Z 32009KT 10SM CLR 23/13 A3001 RMK AO2 SLP147 T02330128
Loading
Personal Weather Stations






























Interactive Weather Map New forecast layout! Learn more

10-Day Weather Forecast

Advertisements
Track Severe Weather on mobile